createdAt,value
2022-10-19T00:02:20.814Z,12.95
2022-10-19T00:04:47.601Z,13.68
2022-10-19T00:07:14.318Z,12.48
2022-10-19T00:09:43.610Z,13.63
2022-10-19T00:12:10.944Z,12.80
2022-10-19T00:14:37.644Z,12.10
2022-10-19T00:17:04.285Z,13.63
2022-10-19T00:19:30.955Z,12.43
2022-10-19T00:21:57.728Z,11.48
2022-10-19T00:24:24.319Z,11.98
2022-10-19T00:26:51.030Z,10.65
2022-10-19T00:29:18.065Z,12.32
2022-10-19T00:31:44.675Z,12.30
2022-10-19T00:34:11.437Z,12.82
2022-10-19T00:36:40.286Z,12.27
2022-10-19T00:39:11.093Z,11.40
2022-10-19T00:41:38.414Z,11.15
2022-10-19T00:44:30.766Z,11.32
2022-10-19T00:47:02.836Z,10.93
2022-10-19T00:49:37.580Z,12.25
2022-10-19T00:52:14.372Z,10.52
2022-10-19T00:54:42.822Z,9.98
2022-10-19T00:57:10.690Z,10.18
2022-10-19T00:59:40.018Z,12.13
2022-10-19T01:02:07.455Z,13.57
2022-10-19T01:04:37.050Z,13.82
2022-10-19T01:07:05.221Z,13.65
2022-10-19T01:09:32.072Z,14.55
2022-10-19T01:12:12.404Z,14.35
2022-10-19T01:15:01.611Z,14.48
2022-10-19T01:17:37.107Z,14.88
2022-10-19T01:20:09.524Z,16.00
2022-10-19T01:22:47.993Z,13.63
2022-10-19T01:25:38.845Z,15.07
2022-10-19T01:28:42.934Z,14.15
2022-10-19T01:31:34.998Z,16.58
2022-10-19T01:34:32.148Z,14.45
2022-10-19T01:37:23.157Z,14.30
2022-10-19T01:39:59.890Z,16.15
2022-10-19T01:42:46.756Z,16.15
2022-10-19T01:45:26.958Z,13.73
2022-10-19T01:48:02.538Z,14.48
2022-10-19T01:50:39.123Z,13.75
2022-10-19T01:53:08.653Z,14.43
2022-10-19T01:55:39.600Z,13.18
2022-10-19T01:58:10.092Z,13.65
2022-10-19T02:00:40.947Z,14.05
2022-10-19T02:03:09.501Z,12.23
2022-10-19T02:05:38.095Z,13.23
2022-10-19T02:08:11.927Z,12.52
2022-10-19T02:10:41.417Z,12.30
2022-10-19T02:13:09.681Z,14.68
2022-10-19T02:15:39.711Z,11.82
2022-10-19T02:18:08.202Z,11.65
2022-10-19T02:20:36.912Z,11.70
2022-10-19T02:23:06.277Z,10.65
2022-10-19T02:25:33.862Z,11.77
2022-10-19T02:28:02.739Z,10.05
2022-10-19T02:30:29.398Z,9.13
2022-10-19T02:32:56.202Z,10.10
2022-10-19T02:35:22.949Z,8.63
2022-10-19T02:37:49.806Z,8.80
2022-10-19T02:40:16.669Z,7.63
2022-10-19T02:42:50.263Z,8.30
2022-10-19T02:45:28.198Z,6.68
2022-10-19T02:48:20.799Z,7.85
2022-10-19T02:50:52.041Z,7.70
2022-10-19T02:53:19.103Z,6.47
2022-10-19T02:55:48.897Z,6.80
2022-10-19T02:58:15.762Z,7.18
2022-10-19T03:00:43.145Z,7.15
2022-10-19T03:03:10.335Z,6.32
2022-10-19T03:05:36.925Z,7.47
2022-10-19T03:08:03.732Z,6.15
2022-10-19T03:10:30.363Z,6.43
2022-10-19T03:12:59.974Z,6.30
2022-10-19T03:15:29.070Z,6.32
2022-10-19T03:17:56.625Z,6.78
2022-10-19T03:20:23.466Z,7.50
2022-10-19T03:22:50.367Z,5.82
2022-10-19T03:25:17.163Z,6.35
2022-10-19T03:27:43.916Z,6.10
2022-10-19T03:30:10.837Z,7.30
2022-10-19T03:32:37.474Z,8.63
2022-10-19T03:35:04.431Z,5.60
2022-10-19T03:37:31.148Z,6.78
2022-10-19T03:39:58.009Z,6.63
2022-10-19T03:42:24.598Z,6.63
2022-10-19T03:44:51.169Z,6.45
2022-10-19T03:47:17.763Z,6.50
2022-10-19T03:49:44.473Z,5.88
2022-10-19T03:52:11.208Z,5.43
2022-10-19T03:54:37.904Z,9.52
2022-10-19T03:57:04.591Z,6.88
2022-10-19T03:59:31.242Z,5.22
2022-10-19T04:01:57.932Z,6.60
2022-10-19T04:04:24.586Z,7.10
2022-10-19T04:06:53.498Z,6.03
2022-10-19T04:09:22.087Z,5.82
2022-10-19T04:11:48.914Z,6.18
2022-10-19T04:14:26.876Z,6.88
2022-10-19T04:17:00.090Z,7.15
2022-10-19T04:19:26.855Z,6.13
2022-10-19T04:21:53.465Z,6.45
2022-10-19T04:24:20.139Z,7.38
2022-10-19T04:26:52.156Z,7.45
2022-10-19T04:29:21.945Z,7.20
2022-10-19T04:31:52.025Z,6.78
2022-10-19T04:34:19.337Z,9.32
2022-10-19T04:36:46.018Z,7.25
2022-10-19T04:39:12.815Z,7.05
2022-10-19T04:41:39.504Z,7.20
2022-10-19T04:44:06.693Z,7.60
2022-10-19T04:46:33.605Z,7.85
2022-10-19T04:49:00.439Z,8.52
2022-10-19T04:51:27.794Z,8.57
2022-10-19T04:53:59.295Z,8.25
2022-10-19T04:56:27.935Z,8.25
2022-10-19T04:58:59.022Z,8.02
2022-10-19T05:01:27.095Z,7.97
2022-10-19T05:04:02.199Z,8.30
2022-10-19T05:06:30.796Z,8.50
2022-10-19T05:08:57.635Z,9.57
2022-10-19T05:11:24.384Z,8.55
2022-10-19T05:13:51.259Z,9.68
2022-10-19T05:16:20.106Z,9.07
2022-10-19T05:18:51.239Z,10.87
2022-10-19T05:21:18.978Z,9.40
2022-10-19T05:23:46.067Z,9.02
2022-10-19T05:26:17.904Z,9.60
2022-10-19T05:28:56.843Z,9.55
2022-10-19T05:31:28.442Z,10.48
2022-10-19T05:33:58.797Z,9.27
2022-10-19T05:36:27.397Z,10.02
2022-10-19T05:38:56.935Z,8.60
2022-10-19T05:41:25.277Z,9.32
2022-10-19T05:43:54.593Z,9.05
2022-10-19T05:46:21.638Z,10.00
2022-10-19T05:48:48.306Z,9.90
2022-10-19T05:51:17.925Z,9.10
2022-10-19T05:53:45.224Z,9.00
2022-10-19T05:56:16.682Z,8.02
2022-10-19T05:58:44.010Z,9.25
2022-10-19T06:01:10.678Z,8.30
2022-10-19T06:03:37.311Z,8.30
2022-10-19T06:06:05.377Z,8.63
2022-10-19T06:08:32.235Z,8.48
2022-10-19T06:11:14.267Z,8.52
2022-10-19T06:13:42.302Z,8.15
2022-10-19T06:16:10.582Z,8.57
2022-10-19T06:18:38.138Z,10.20
2022-10-19T06:21:10.885Z,10.02
2022-10-19T06:23:38.038Z,8.40
2022-10-19T06:26:08.528Z,9.38
2022-10-19T06:28:36.790Z,9.68
2022-10-19T06:31:07.074Z,9.07
2022-10-19T06:33:36.119Z,8.20
2022-10-19T06:36:11.441Z,8.50
2022-10-19T06:38:38.385Z,8.90
2022-10-19T06:41:05.848Z,7.85
2022-10-19T06:43:33.188Z,8.35
2022-10-19T06:46:03.624Z,8.00
2022-10-19T06:48:30.251Z,7.20
2022-10-19T06:50:58.099Z,7.28
2022-10-19T06:53:24.887Z,7.55
2022-10-19T06:55:51.575Z,6.50
2022-10-19T06:58:18.261Z,6.88
2022-10-19T07:00:45.047Z,6.88
2022-10-19T07:03:11.676Z,7.30
2022-10-19T07:05:38.380Z,6.20
2022-10-19T07:08:05.171Z,6.97
2022-10-19T07:10:31.897Z,5.53
2022-10-19T07:12:58.625Z,6.00
2022-10-19T07:15:25.363Z,6.60
2022-10-19T07:17:53.126Z,6.18
2022-10-19T07:20:19.712Z,5.72
2022-10-19T07:22:46.319Z,6.30
2022-10-19T07:25:13.119Z,6.57
2022-10-19T07:27:40.463Z,6.38
2022-10-19T07:30:07.930Z,6.30
2022-10-19T07:32:34.504Z,5.53
2022-10-19T07:35:01.204Z,5.63
2022-10-19T07:37:27.826Z,5.93
2022-10-19T07:39:54.475Z,5.05
2022-10-19T07:44:48.740Z,4.63
2022-10-19T07:47:15.368Z,5.00
2022-10-19T07:49:42.003Z,5.13
2022-10-19T07:52:08.562Z,4.30
2022-10-19T07:54:35.440Z,4.50
2022-10-19T07:57:02.074Z,4.47
2022-10-19T07:59:28.815Z,4.15
2022-10-19T08:01:57.045Z,4.47
2022-10-19T08:07:11.047Z,4.45
2022-10-19T08:09:52.571Z,5.18
2022-10-19T08:12:20.216Z,4.28
2022-10-19T08:14:47.973Z,5.50
2022-10-19T08:17:17.376Z,4.68
2022-10-19T08:19:45.225Z,4.00
2022-10-19T08:22:12.084Z,4.20
2022-10-19T08:24:38.760Z,4.68
2022-10-19T08:27:05.504Z,4.65
2022-10-19T08:29:32.306Z,4.80
2022-10-19T08:31:59.087Z,4.80
2022-10-19T08:34:29.738Z,5.43
2022-10-19T08:36:56.354Z,5.38
2022-10-19T08:39:23.779Z,5.57
2022-10-19T08:42:02.911Z,4.80
2022-10-19T08:44:35.695Z,5.53
2022-10-19T08:47:35.049Z,5.70
2022-10-19T08:50:03.377Z,5.43
2022-10-19T08:52:34.566Z,5.40
2022-10-19T08:55:24.295Z,4.53
2022-10-19T08:57:55.953Z,5.47
2022-10-19T09:00:42.248Z,4.55
2022-10-19T09:03:55.415Z,4.60
2022-10-19T09:06:41.752Z,5.55
2022-10-19T09:09:13.325Z,4.93
2022-10-19T09:11:44.276Z,4.88
2022-10-19T09:14:18.486Z,4.85
2022-10-19T09:16:46.221Z,5.90
2022-10-19T09:19:25.872Z,5.43
2022-10-19T09:22:04.412Z,5.80
2022-10-19T09:24:50.929Z,5.68
2022-10-19T09:27:26.062Z,6.22
2022-10-19T09:30:03.780Z,5.43
2022-10-19T09:32:38.757Z,5.93
2022-10-19T09:35:18.641Z,5.15
2022-10-19T09:40:20.219Z,5.15
2022-10-19T09:42:48.044Z,5.43
2022-10-19T09:45:36.425Z,5.88
2022-10-19T09:48:13.966Z,7.50
2022-10-19T09:50:44.655Z,6.03
2022-10-19T09:53:19.715Z,6.18
2022-10-19T09:55:53.180Z,5.90
2022-10-19T09:58:20.762Z,6.38
2022-10-19T10:00:56.701Z,5.38
2022-10-19T10:03:35.320Z,5.40
2022-10-19T10:06:13.799Z,6.35
2022-10-19T10:08:47.838Z,10.30
2022-10-19T10:11:22.701Z,5.22
2022-10-19T10:13:54.420Z,5.80
2022-10-19T10:16:23.629Z,5.93
2022-10-19T10:18:59.077Z,4.55
2022-10-19T10:21:35.757Z,5.32
2022-10-19T10:24:16.801Z,5.43
2022-10-19T10:27:06.404Z,4.72
2022-10-19T10:29:38.941Z,5.00
2022-10-19T10:32:12.373Z,4.63
2022-10-19T10:34:54.828Z,6.28
2022-10-19T10:37:30.641Z,5.00
2022-10-19T10:40:01.772Z,4.90
2022-10-19T10:42:41.941Z,5.65
2022-10-19T10:45:28.088Z,6.85
2022-10-19T10:47:54.950Z,5.90
2022-10-19T10:50:31.640Z,6.40
2022-10-19T10:53:05.429Z,5.28
2022-10-19T10:55:33.417Z,4.10
2022-10-19T10:58:18.401Z,4.82
2022-10-19T11:00:46.564Z,4.75
2022-10-19T11:03:19.367Z,5.38
2022-10-19T11:05:53.357Z,5.38
2022-10-19T11:08:31.281Z,4.80
2022-10-19T11:11:06.511Z,4.22
2022-10-19T11:13:44.234Z,4.82
2022-10-19T11:16:38.605Z,6.25
2022-10-19T11:19:27.222Z,6.30
2022-10-19T11:22:16.625Z,5.97
2022-10-19T11:27:28.137Z,5.97
2022-10-19T11:30:14.519Z,6.72
2022-10-19T11:33:19.270Z,6.05
2022-10-19T11:36:01.915Z,6.22
2022-10-19T11:38:48.170Z,6.85
2022-10-19T11:41:39.082Z,7.10
2022-10-19T11:44:14.816Z,6.57
2022-10-19T11:46:52.831Z,6.70
2022-10-19T11:49:31.781Z,6.30
2022-10-19T11:52:12.943Z,6.18
2022-10-19T11:55:11.276Z,6.25
2022-10-19T11:57:54.359Z,5.22
2022-10-19T12:00:38.238Z,7.30
2022-10-19T12:03:24.064Z,6.45
2022-10-19T12:06:03.195Z,5.95
2022-10-19T12:09:14.082Z,6.50
2022-10-19T12:12:02.312Z,6.32
2022-10-19T12:14:33.969Z,6.68
2022-10-19T12:17:07.570Z,7.80
2022-10-19T12:19:40.597Z,6.65
2022-10-19T12:22:15.304Z,6.40
2022-10-19T12:24:42.055Z,6.60
2022-10-19T12:27:14.715Z,7.43
2022-10-19T12:29:45.554Z,6.18
2022-10-19T12:32:16.593Z,7.60
2022-10-19T12:34:56.753Z,6.78
2022-10-19T12:37:41.124Z,7.35
2022-10-19T12:40:19.357Z,8.93
2022-10-19T12:43:22.623Z,8.95
2022-10-19T12:46:04.656Z,7.32
2022-10-19T12:48:31.346Z,9.18
2022-10-19T12:51:03.860Z,7.70
2022-10-19T12:53:39.894Z,7.97
2022-10-19T12:56:09.600Z,7.10
2022-10-19T13:01:35.135Z,8.18
2022-10-19T13:04:16.591Z,7.57
2022-10-19T13:06:50.119Z,7.53
2022-10-19T13:09:23.305Z,7.97
2022-10-19T13:12:19.302Z,7.82
2022-10-19T13:14:57.971Z,8.73
2022-10-19T13:17:37.205Z,8.27
2022-10-19T13:20:16.082Z,7.15
2022-10-19T13:22:48.892Z,8.57
2022-10-19T13:25:30.025Z,8.73
2022-10-19T13:28:36.251Z,7.97
2022-10-19T13:31:06.998Z,8.40
2022-10-19T13:33:48.349Z,8.43
2022-10-19T13:36:16.238Z,7.80
2022-10-19T13:38:50.429Z,6.75
2022-10-19T13:41:25.938Z,7.75
2022-10-19T13:44:08.703Z,6.13
2022-10-19T13:46:48.462Z,7.80
2022-10-19T13:49:34.108Z,6.90
2022-10-19T13:52:03.545Z,7.20
2022-10-19T13:54:30.166Z,6.95
2022-10-19T13:57:37.760Z,7.03
2022-10-19T14:00:13.220Z,7.10
2022-10-19T14:03:11.860Z,8.00
2022-10-19T14:06:14.075Z,7.73
2022-10-19T14:09:19.647Z,8.13
2022-10-19T14:11:51.258Z,7.35
2022-10-19T14:14:21.705Z,8.15
2022-10-19T14:16:58.432Z,7.85
2022-10-19T14:19:30.560Z,8.32
2022-10-19T14:22:00.625Z,8.23
2022-10-19T14:24:34.168Z,10.23
2022-10-19T14:27:05.481Z,8.88
2022-10-19T14:29:42.785Z,7.72
2022-10-19T14:32:11.109Z,8.27
2022-10-19T14:34:42.531Z,6.85
2022-10-19T14:37:24.434Z,6.70
2022-10-19T14:40:27.895Z,8.15
2022-10-19T14:42:57.098Z,7.63
2022-10-19T14:45:27.670Z,7.73
2022-10-19T14:48:06.812Z,9.65
2022-10-19T14:50:42.664Z,8.73
2022-10-19T14:53:34.427Z,8.73
2022-10-19T14:56:07.941Z,9.43
2022-10-19T14:58:46.007Z,8.60
2022-10-19T15:01:12.868Z,8.50
2022-10-19T15:03:43.716Z,7.78
2022-10-19T15:06:18.186Z,7.88
2022-10-19T15:08:51.787Z,7.50
2022-10-19T15:11:29.896Z,7.13
2022-10-19T15:14:14.961Z,7.57
2022-10-19T15:16:58.602Z,7.65
2022-10-19T15:19:27.294Z,7.68
2022-10-19T15:22:32.060Z,6.90
2022-10-19T15:25:06.445Z,6.50
2022-10-19T15:27:46.097Z,7.25
2022-10-19T15:32:48.391Z,6.85
2022-10-19T15:35:21.588Z,6.88
2022-10-19T15:37:50.151Z,6.13
2022-10-19T15:40:40.434Z,6.13
2022-10-19T15:43:34.367Z,5.00
2022-10-19T15:46:22.357Z,4.80
2022-10-19T15:48:55.174Z,5.45
2022-10-19T15:51:25.157Z,5.82
2022-10-19T15:56:20.543Z,6.85
2022-10-19T15:58:56.034Z,8.93
2022-10-19T16:01:26.097Z,9.00
2022-10-19T16:03:53.628Z,9.50
2022-10-19T16:06:22.701Z,9.45
2022-10-19T16:08:51.211Z,10.10
2022-10-19T16:11:19.607Z,8.82
2022-10-19T16:13:46.850Z,11.60
2022-10-19T16:16:21.884Z,12.02
2022-10-19T16:18:48.690Z,11.75
2022-10-19T16:21:15.913Z,11.88
2022-10-19T16:23:42.726Z,12.35
2022-10-19T16:26:11.078Z,12.15
2022-10-19T16:28:37.650Z,12.20
2022-10-19T16:31:04.460Z,13.18
2022-10-19T16:33:31.108Z,11.93
2022-10-19T16:35:57.827Z,13.77
2022-10-19T16:38:24.488Z,13.23
2022-10-19T16:40:51.201Z,13.77
2022-10-19T16:43:17.831Z,14.70
2022-10-19T16:45:44.514Z,14.75
2022-10-19T16:48:12.502Z,15.35
2022-10-19T16:50:39.274Z,13.57
2022-10-19T16:53:11.349Z,13.90
2022-10-19T16:55:39.852Z,12.73
2022-10-19T16:58:07.000Z,11.35
2022-10-19T17:00:33.816Z,11.70
2022-10-19T17:03:00.437Z,12.73
2022-10-19T17:05:27.120Z,12.27
2022-10-19T17:07:53.858Z,12.95
2022-10-19T17:10:20.482Z,11.68
2022-10-19T17:12:47.233Z,11.07
2022-10-19T17:15:43.810Z,11.20
2022-10-19T17:18:00.473Z,11.85
2022-10-19T17:20:27.067Z,11.70
2022-10-19T17:22:53.852Z,11.25
2022-10-19T17:25:20.427Z,12.02
2022-10-19T17:27:50.922Z,12.32
2022-10-19T17:30:18.180Z,11.45
2022-10-19T17:32:44.813Z,12.35
2022-10-19T17:35:11.403Z,11.48
2022-10-19T17:37:38.177Z,11.60
2022-10-19T17:40:05.641Z,11.90
2022-10-19T17:42:36.382Z,13.80
2022-10-19T17:45:03.169Z,11.98
2022-10-19T17:47:30.563Z,11.90
2022-10-19T17:49:57.151Z,11.02
2022-10-19T17:52:23.753Z,30.63
2022-10-19T17:55:11.118Z,20.90
2022-10-19T17:57:37.332Z,17.67
2022-10-19T18:00:05.927Z,12.32
2022-10-19T18:02:32.789Z,13.45
2022-10-19T18:04:59.683Z,26.42
2022-10-19T18:07:26.293Z,56.78
2022-10-19T18:09:52.882Z,12.13
2022-10-19T18:12:19.691Z,11.98
2022-10-19T18:14:46.301Z,11.23
2022-10-19T18:17:13.090Z,12.77
2022-10-19T18:19:39.753Z,12.32
2022-10-19T18:22:06.331Z,12.35
2022-10-19T18:24:34.624Z,12.85
2022-10-19T18:27:01.417Z,12.10
2022-10-19T18:29:28.546Z,12.60
2022-10-19T18:31:55.463Z,12.65
2022-10-19T18:34:26.230Z,12.98
2022-10-19T18:36:53.774Z,13.40
2022-10-19T18:39:20.800Z,11.95
2022-10-19T18:41:51.675Z,12.95
2022-10-19T18:44:23.522Z,12.18
2022-10-19T18:46:53.124Z,12.68
2022-10-19T18:49:19.848Z,11.10
2022-10-19T18:51:50.653Z,12.13
2022-10-19T18:54:20.926Z,12.55
2022-10-19T18:56:47.543Z,12.32
2022-10-19T18:59:14.433Z,11.75
2022-10-19T19:01:41.128Z,11.32
2022-10-19T19:04:09.457Z,11.55
2022-10-19T19:06:37.492Z,12.57
2022-10-19T19:09:07.467Z,12.07
2022-10-19T19:11:37.436Z,11.27
2022-10-19T19:14:16.215Z,11.95
2022-10-19T19:16:44.634Z,12.63
2022-10-19T19:19:13.575Z,11.65
2022-10-19T19:21:43.722Z,12.40
2022-10-19T19:24:14.260Z,10.38
2022-10-19T19:26:45.316Z,9.77
2022-10-19T19:29:11.912Z,9.85
2022-10-19T19:31:39.289Z,9.93
2022-10-19T19:34:07.897Z,10.93
2022-10-19T19:36:34.897Z,11.27
2022-10-19T19:39:03.450Z,9.80
2022-10-19T19:41:32.428Z,9.60
2022-10-19T19:43:59.156Z,10.30
2022-10-19T19:46:26.299Z,9.98
2022-10-19T19:49:00.159Z,9.38
2022-10-19T19:51:27.980Z,11.20
2022-10-19T19:53:54.673Z,11.68
2022-10-19T19:56:21.505Z,12.32
2022-10-19T19:58:48.327Z,10.80
2022-10-19T20:01:18.082Z,10.63
2022-10-19T20:03:45.948Z,11.00
2022-10-19T20:06:14.693Z,11.63
2022-10-19T20:08:41.542Z,10.65
2022-10-19T20:11:13.730Z,10.32
2022-10-19T20:13:40.505Z,10.73
2022-10-19T20:16:09.294Z,10.88
2022-10-19T20:18:36.332Z,10.00
2022-10-19T20:21:03.887Z,10.88
2022-10-19T20:23:30.859Z,10.15
2022-10-19T20:25:57.661Z,10.23
2022-10-19T20:28:26.083Z,10.13
2022-10-19T20:31:07.248Z,10.70
2022-10-19T20:33:36.145Z,11.43
2022-10-19T20:36:06.426Z,11.32
2022-10-19T20:38:38.462Z,11.07
2022-10-19T20:41:08.108Z,11.15
2022-10-19T20:43:36.319Z,11.40
2022-10-19T20:46:13.005Z,12.27
2022-10-19T20:48:40.459Z,11.30
2022-10-19T20:51:12.437Z,10.98
2022-10-19T20:53:39.506Z,11.20
2022-10-19T20:56:08.303Z,11.18
2022-10-19T20:58:35.314Z,10.87
2022-10-19T21:01:07.082Z,11.00
2022-10-19T21:03:33.940Z,11.80
2022-10-19T21:06:08.453Z,11.48
2022-10-19T21:08:36.232Z,9.27
2022-10-19T21:11:12.617Z,10.57
2022-10-19T21:13:39.507Z,10.23
2022-10-19T21:16:15.005Z,10.75
2022-10-19T21:18:42.305Z,9.85
2022-10-19T21:21:21.306Z,11.85
2022-10-19T21:23:50.727Z,10.73
2022-10-19T21:26:17.884Z,9.77
2022-10-19T21:28:49.265Z,9.27
2022-10-19T21:31:17.648Z,10.35
2022-10-19T21:33:44.661Z,10.27
2022-10-19T21:36:12.935Z,10.18
2022-10-19T21:38:39.674Z,10.82
2022-10-19T21:41:08.684Z,10.10
2022-10-19T21:43:35.726Z,9.27
2022-10-19T21:46:03.882Z,8.98
2022-10-19T21:48:31.767Z,10.25
2022-10-19T21:56:40.472Z,9.55
2022-10-19T21:59:07.155Z,9.18
2022-10-19T22:01:38.497Z,8.38
2022-10-19T22:04:13.537Z,9.38
2022-10-19T22:06:40.720Z,8.73
2022-10-19T22:09:09.405Z,8.02
2022-10-19T22:11:36.106Z,9.20
2022-10-19T22:14:03.974Z,8.32
2022-10-19T22:16:32.291Z,8.35
2022-10-19T22:18:59.371Z,8.43
2022-10-19T22:21:28.924Z,9.10
2022-10-19T22:23:58.743Z,8.43
2022-10-19T22:28:55.581Z,7.95
2022-10-19T22:31:22.280Z,7.40
2022-10-19T22:33:49.127Z,7.40
2022-10-19T22:36:16.217Z,7.75
2022-10-19T22:38:42.868Z,8.02
2022-10-19T22:41:09.493Z,6.50
2022-10-19T22:43:36.258Z,7.32
2022-10-19T22:46:02.949Z,7.50
2022-10-19T22:48:29.879Z,7.80
2022-10-19T22:50:56.891Z,7.18
2022-10-19T22:53:24.445Z,6.50
2022-10-19T22:55:51.397Z,7.25
2022-10-19T22:58:19.080Z,7.40
2022-10-19T23:00:45.704Z,7.43
2022-10-19T23:03:12.309Z,7.18
2022-10-19T23:05:38.952Z,7.03
2022-10-19T23:08:05.778Z,7.15
2022-10-19T23:10:32.767Z,7.18
2022-10-19T23:12:59.385Z,6.65
2022-10-19T23:15:26.000Z,8.07
2022-10-19T23:17:52.604Z,7.57
2022-10-19T23:20:19.200Z,7.78
2022-10-19T23:22:45.926Z,8.15
2022-10-19T23:25:12.512Z,8.63
2022-10-19T23:27:39.414Z,8.38
2022-10-19T23:30:06.632Z,7.75
2022-10-19T23:32:33.309Z,7.70
2022-10-19T23:34:59.919Z,6.90
2022-10-19T23:37:26.610Z,7.18
2022-10-19T23:39:53.330Z,8.45
2022-10-19T23:42:20.054Z,8.07
2022-10-19T23:44:46.664Z,6.65
2022-10-19T23:47:13.335Z,7.53
2022-10-19T23:49:39.924Z,7.55
2022-10-19T23:52:06.602Z,8.82
2022-10-19T23:54:33.245Z,7.60
2022-10-19T23:57:00.023Z,7.45
2022-10-19T23:59:26.737Z,7.45
